This is the latest recevied weather packets stored in our database for station/object M0ADS. If no packets are shown the sender has not sent any weather packets the latest 1 day(s).
| Time | Temp. | Humidity | Pressure | Rain* | Wind** | Luminosity | Snow |
|---|---|---|---|---|---|---|---|
| 1778103546 | 5.56° C | 82% | 1015.6 hPa | 0 mm | - | - | - |
| 1778101744 | 6.11° C | 80% | 1015.5 hPa | 0 mm | - | - | - |
| 1778097242 | 7.22° C | 76% | 1014.8 hPa | 0 mm | - | - | - |
| 1778096342 | 7.78° C | 74% | 1014.7 hPa | 0 mm | - | - | - |
| 1778095442 | 8.33° C | 72% | 1014.5 hPa | 0 mm | - | - | - |
| 1778093639 | 8.89° C | 71% | 1014.4 hPa | 0 mm | - | - | - |
| 1778086435 | 10.56° C | 64% | 1014.1 hPa | 0 mm | - | - | - |
| 1778084633 | 10° C | 68% | 1014.2 hPa | 0 mm | - | - | - |
| 1778079229 | 10° C | 64% | 1014.3 hPa | 0 mm | - | - | - |
| 1778074727 | 10° C | 65% | 1014.4 hPa | 0 mm | - | - | - |
| 1778073827 | 10° C | 65% | 1014.3 hPa | 0 mm | - | - | - |
| 1778072926 | 11.11° C | 63% | 1014.4 hPa | 0 mm | - | - | - |
| 1778072025 | 11.67° C | 63% | 1014.4 hPa | 0 mm | - | - | - |
| 1778070221 | 10° C | 66% | 1014.4 hPa | 0 mm | - | - | - |
| 1778066620 | 12.22° C | 59% | 1014.4 hPa | 0 mm | - | - | - |
| 1778064820 | 12.78° C | 62% | 1014.5 hPa | 0 mm | - | - | - |
| 1778063920 | 11.67° C | 60% | 1014.6 hPa | 0 mm | - | - | - |
| 1778063018 | 11.11° C | 63% | 1014.5 hPa | 0 mm | - | - | - |
| 1778062118 | 11.67° C | 61% | 1014.6 hPa | 0 mm | - | - | - |
| 1778061218 | 11.11° C | 63% | 1014.6 hPa | 0 mm | - | - | - |
| 1778058518 | 10° C | 67% | 1014.8 hPa | 0 mm | - | - | - |
| 1778056717 | 8.33° C | 72% | 1014.8 hPa | 0 mm | - | - | - |
| 1778053116 | 8.89° C | 73% | 1014.8 hPa | 0 mm | - | - | - |
| 1778050415 | 7.78° C | 76% | 1014.6 hPa | 0 mm | - | - | - |
| 1778049515 | 7.22° C | 79% | 1014.6 hPa | 0 mm | - | - | - |
* Rain latest hour (hover to see other rain measurements)
** Current wind speed in m/s (hover to see current wind gust speed)